Time;durP1;ratioP1;P1;durP2;ratioP2;P2;SDS_P1;SDS_P2;PMS_P1;PMS_P2;Temp;Humidity;BMP_temperature;BMP_pressure;BME280_temperature;BME280_humidity;BME280_pressure;Samples;Min_cycle;Max_cycle;Signal;HPM_P1;HPM_P2
2021/01/24 00:01:20;;;;;;;8.02;5.70;;;4.50;80.80;;;;;;5028148;28;20029;-89
2021/01/24 00:03:45;;;;;;;7.63;5.88;;;4.50;80.80;;;;;;5033245;28;20053;-88
2021/01/24 00:06:11;;;;;;;9.93;6.43;;;4.50;80.80;;;;;;5030668;28;20030;-90
2021/01/24 00:08:37;;;;;;;7.72;5.72;;;4.60;80.90;;;;;;5032011;28;20030;-89
2021/01/24 00:11:02;;;;;;;10.32;6.80;;;4.60;80.80;;;;;;5014322;28;20480;-89
2021/01/24 00:13:28;;;;;;;10.70;7.45;;;4.70;80.90;;;;;;5017105;28;20033;-89
2021/01/24 00:15:54;;;;;;;12.98;8.38;;;4.60;80.90;;;;;;5014604;28;20018;-89
2021/01/24 00:18:28;;;;;;;11.65;8.02;;;4.60;80.90;;;;;;5019409;28;20025;-89
2021/01/24 00:20:53;;;;;;;10.32;7.10;;;4.50;81.70;;;;;;5004345;28;20065;-90
2021/01/24 00:23:19;;;;;;;12.50;8.80;;;4.50;81.00;;;;;;5022723;28;20022;-89
2021/01/24 00:25:46;;;;;;;10.75;8.45;;;4.40;81.00;;;;;;5026020;28;20042;-88
2021/01/24 00:28:12;;;;;;;11.00;8.38;;;4.40;81.10;;;;;;5032028;28;20018;-89
2021/01/24 00:30:38;;;;;;;11.88;8.48;;;4.40;81.10;;;;;;5033224;28;20024;-88
2021/01/24 00:33:03;;;;;;;12.15;8.82;;;4.40;81.20;;;;;;5010929;28;20041;-88
2021/01/24 00:35:29;;;;;;;9.05;6.93;;;4.40;81.20;;;;;;5013952;28;20698;-90
2021/01/24 00:38:05;;;;;;;13.15;9.10;;;4.40;81.30;;;;;;5012663;28;20113;-89
2021/01/24 00:40:31;;;;;;;12.55;8.40;;;4.20;81.30;;;;;;5024334;28;20316;-89
2021/01/24 00:42:57;;;;;;;9.60;6.75;;;4.30;81.40;;;;;;5034067;28;20030;-89
2021/01/24 00:45:22;;;;;;;12.00;8.07;;;4.30;81.50;;;;;;5031966;28;20025;-90
2021/01/24 00:47:48;;;;;;;12.35;7.82;;;4.30;81.50;;;;;;5028096;28;20184;-90
2021/01/24 00:50:14;;;;;;;12.82;8.57;;;4.30;81.60;;;;;;5016374;28;20037;-89
2021/01/24 00:52:39;;;;;;;13.48;8.80;;;4.30;81.50;;;;;;5004211;28;20025;-89
2021/01/24 00:55:05;;;;;;;11.70;7.50;;;4.30;81.60;;;;;;5007011;28;20026;-89
2021/01/24 00:57:32;;;;;;;12.38;7.97;;;4.20;81.70;;;;;;5004870;28;20041;-89
2021/01/24 00:59:57;;;;;;;10.05;6.80;;;4.20;81.70;;;;;;5011903;28;20022;-89
2021/01/24 01:02:23;;;;;;;10.23;6.28;;;4.20;81.70;;;;;;5012337;28;20033;-89
2021/01/24 01:04:48;;;;;;;10.73;6.97;;;4.20;81.70;;;;;;5011002;28;20065;-89
2021/01/24 01:07:15;;;;;;;12.18;7.95;;;4.20;81.80;;;;;;5001855;28;20034;-90
2021/01/24 01:09:41;;;;;;;9.80;7.10;;;4.20;81.80;;;;;;4992466;28;20054;-90
2021/01/24 01:12:07;;;;;;;10.27;6.20;;;4.10;81.80;;;;;;5007878;28;20484;-90
2021/01/24 01:14:32;;;;;;;10.50;7.43;;;4.10;81.90;;;;;;5009470;28;20113;-89
2021/01/24 01:16:58;;;;;;;11.02;7.22;;;4.10;81.90;;;;;;5010203;28;20014;-89
2021/01/24 01:19:24;;;;;;;11.05;7.60;;;4.10;81.90;;;;;;5011906;28;20026;-89
2021/01/24 01:21:49;;;;;;;11.07;8.07;;;4.00;81.90;;;;;;5006765;28;20029;-90
2021/01/24 01:24:15;;;;;;;12.95;8.30;;;4.00;82.00;;;;;;5010867;28;20041;-90
2021/01/24 01:26:40;;;;;;;8.95;6.40;;;4.00;82.00;;;;;;5017622;28;20030;-91
2021/01/24 01:29:06;;;;;;;12.35;8.18;;;4.00;82.10;;;;;;5021776;28;20097;-90
2021/01/24 01:31:31;;;;;;;13.13;7.97;;;4.00;82.10;;;;;;5005547;28;20121;-88
2021/01/24 01:33:57;;;;;;;10.38;6.57;;;4.00;82.20;;;;;;5007489;28;20108;-89
2021/01/24 01:36:23;;;;;;;10.23;7.20;;;4.00;82.20;;;;;;5008487;28;20072;-89
2021/01/24 01:38:48;;;;;;;10.07;6.75;;;4.00;82.20;;;;;;5013957;28;20029;-88
2021/01/24 01:41:14;;;;;;;10.55;7.20;;;4.00;82.20;;;;;;5019146;28;20037;-89
2021/01/24 01:43:40;;;;;;;10.05;7.25;;;3.90;82.20;;;;;;5018154;28;20487;-89
2021/01/24 01:46:05;;;;;;;8.48;5.93;;;4.00;82.20;;;;;;5008839;28;20037;-87
2021/01/24 01:48:32;;;;;;;8.77;5.68;;;4.10;82.30;;;;;;5014199;28;20018;-89
2021/01/24 01:50:58;;;;;;;11.38;8.00;;;4.00;82.20;;;;;;5009252;28;20492;-89
2021/01/24 01:53:24;;;;;;;14.32;7.82;;;4.00;82.10;;;;;;5026124;28;20029;-89
2021/01/24 01:55:50;;;;;;;9.93;6.47;;;3.90;82.20;;;;;;5011155;28;20030;-89
2021/01/24 01:58:16;;;;;;;9.57;6.60;;;3.90;82.30;;;;;;5011112;28;20037;-90
2021/01/24 02:00:42;;;;;;;8.18;5.65;;;3.80;82.40;;;;;;5003534;28;20084;-89
2021/01/24 02:03:37;;;;;;;10.00;6.50;;;3.80;82.50;;;;;;4999208;28;20026;-89
2021/01/24 02:06:14;;;;;;;10.65;7.07;;;3.90;82.50;;;;;;5009982;28;20100;-88
2021/01/24 02:08:59;;;;;;;10.52;5.63;;;3.80;82.50;;;;;;5004666;28;20101;-89
2021/01/24 02:11:46;;;;;;;10.23;6.00;;;3.80;82.50;;;;;;5005773;28;20026;-89
2021/01/24 02:14:33;;;;;;;7.00;4.45;;;3.80;82.50;;;;;;5000448;28;20034;-89
2021/01/24 02:17:02;;;;;;;7.13;5.03;;;4.00;82.60;;;;;;5007151;28;20026;-89
2021/01/24 02:20:03;;;;;;;7.05;5.07;;;3.90;82.50;;;;;;5007855;28;20500;-89
2021/01/24 02:22:32;;;;;;;8.98;5.22;;;3.90;82.60;;;;;;5008606;28;20030;-90
2021/01/24 02:25:19;;;;;;;4.65;3.30;;;3.90;82.50;;;;;;5010248;28;20205;-90
2021/01/24 02:28:01;;;;;;;7.15;5.28;;;3.90;83.20;;;;;;5007999;28;20046;-89
2021/01/24 02:30:36;;;;;;;7.70;3.78;;;3.80;82.50;;;;;;5008698;28;20021;-89
2021/01/24 02:33:09;;;;;;;6.95;4.50;;;3.80;82.50;;;;;;5009502;28;20109;-89
2021/01/24 02:35:41;;;;;;;7.07;4.72;;;3.80;82.50;;;;;;5011370;28;20030;-90
2021/01/24 02:38:08;;;;;;;7.18;3.85;;;3.80;82.50;;;;;;5013421;28;20021;-90
2021/01/24 02:40:36;;;;;;;6.13;4.20;;;3.80;82.60;;;;;;5007801;28;20069;-89
2021/01/24 02:43:05;;;;;;;6.15;4.15;;;3.80;82.60;;;;;;5000610;28;20045;-91
2021/01/24 02:45:32;;;;;;;5.00;2.92;;;3.90;82.60;;;;;;5014851;28;20026;-90
2021/01/24 02:48:00;;;;;;;6.35;3.78;;;3.80;82.60;;;;;;5006799;28;20501;-90
2021/01/24 02:50:28;;;;;;;5.55;3.50;;;3.80;82.60;;;;;;5007229;28;20030;-91
2021/01/24 02:52:56;;;;;;;4.97;3.38;;;3.80;82.50;;;;;;5010958;28;20030;-89
2021/01/24 02:55:21;;;;;;;6.00;3.58;;;3.90;82.50;;;;;;5006740;28;20018;-90
2021/01/24 02:57:48;;;;;;;5.90;3.30;;;3.90;82.40;;;;;;5004774;28;20044;-90
2021/01/24 03:00:14;;;;;;;4.78;3.40;;;3.90;82.40;;;;;;5011788;28;20076;-89
2021/01/24 03:02:39;;;;;;;5.53;3.22;;;3.90;82.40;;;;;;5012737;28;20072;-90
2021/01/24 03:05:05;;;;;;;5.10;3.22;;;4.00;82.40;;;;;;5014213;28;20479;-90
2021/01/24 03:07:31;;;;;;;4.07;2.70;;;4.00;82.30;;;;;;5014024;28;20748;-90
2021/01/24 03:09:58;;;;;;;5.20;2.50;;;4.10;82.30;;;;;;5016812;28;20022;-90
2021/01/24 03:12:31;;;;;;;4.68;2.80;;;4.10;82.20;;;;;;5016141;28;20030;-90
2021/01/24 03:14:58;;;;;;;3.78;2.50;;;4.10;82.20;;;;;;5018283;28;20025;-90
2021/01/24 03:17:25;;;;;;;4.22;2.85;;;4.20;82.30;;;;;;5032075;28;20022;-90
2021/01/24 03:19:52;;;;;;;4.47;3.10;;;4.30;82.30;;;;;;5009503;28;20037;-90
2021/01/24 03:22:19;;;;;;;4.78;3.03;;;4.20;82.10;;;;;;5009155;28;20030;-90
2021/01/24 03:24:46;;;;;;;4.13;2.72;;;4.20;82.00;;;;;;5001878;28;20026;-91
2021/01/24 03:27:12;;;;;;;5.15;3.03;;;4.20;82.10;;;;;;5007069;28;20030;-90
2021/01/24 03:29:38;;;;;;;4.63;2.97;;;4.20;82.20;;;;;;5006733;28;20077;-90
2021/01/24 03:32:04;;;;;;;4.43;3.15;;;4.30;82.20;;;;;;5009954;28;20036;-88
2021/01/24 03:34:31;;;;;;;4.47;3.08;;;4.30;82.10;;;;;;5011505;28;20018;-89
2021/01/24 03:36:57;;;;;;;4.95;3.40;;;4.30;82.10;;;;;;5013263;28;20090;-89
2021/01/24 03:39:23;;;;;;;6.10;3.70;;;4.30;82.10;;;;;;5002493;28;20026;-90
2021/01/24 03:41:51;;;;;;;4.30;3.10;;;4.30;82.10;;;;;;5006070;28;20081;-89
2021/01/24 03:44:17;;;;;;;6.70;3.42;;;4.30;82.10;;;;;;5000915;28;20400;-88
2021/01/24 03:46:43;;;;;;;5.90;3.75;;;4.30;82.10;;;;;;5010604;28;20038;-87
2021/01/24 03:49:08;;;;;;;5.60;3.97;;;4.30;82.20;;;;;;5012573;28;20022;-90
2021/01/24 03:51:35;;;;;;;7.05;4.55;;;4.30;82.20;;;;;;5021017;28;20439;-89
2021/01/24 03:54:02;;;;;;;4.90;3.15;;;4.20;82.10;;;;;;5010137;28;20037;-89
2021/01/24 03:56:27;;;;;;;5.55;3.58;;;4.30;82.20;;;;;;5015124;28;20539;-89
2021/01/24 03:58:53;;;;;;;4.72;3.50;;;4.20;82.20;;;;;;5015114;28;20069;-89
2021/01/24 04:01:19;;;;;;;5.40;3.58;;;4.30;82.10;;;;;;5015691;28;20384;-89
2021/01/24 04:03:45;;;;;;;8.48;3.85;;;4.30;82.80;;;;;;5007964;28;20132;-89
2021/01/24 04:06:16;;;;;;;7.57;4.80;;;4.30;82.20;;;;;;5015506;28;20034;-89
2021/01/24 04:08:41;;;;;;;5.47;3.60;;;4.30;82.10;;;;;;5015003;28;20025;-88
2021/01/24 04:11:07;;;;;;;6.82;3.67;;;4.30;82.20;;;;;;5028039;28;20041;-87
2021/01/24 04:13:32;;;;;;;5.53;3.45;;;4.20;82.10;;;;;;5026820;28;20079;-88
2021/01/24 04:15:58;;;;;;;7.13;4.43;;;4.30;82.20;;;;;;5031513;28;20010;-88
2021/01/24 04:18:23;;;;;;;5.88;4.00;;;4.20;82.10;;;;;;5036722;28;20030;-89
2021/01/24 04:20:49;;;;;;;8.05;4.90;;;4.20;82.10;;;;;;5036461;28;20010;-88
2021/01/24 04:23:15;;;;;;;7.85;4.82;;;4.20;82.10;;;;;;5030700;28;20117;-89
2021/01/24 04:25:45;;;;;;;6.25;4.40;;;4.20;82.80;;;;;;5034460;28;20029;-90
2021/01/24 04:28:13;;;;;;;5.57;4.05;;;4.20;82.20;;;;;;5033441;28;20048;-89
2021/01/24 04:30:39;;;;;;;7.68;4.75;;;4.30;82.30;;;;;;5031288;28;20018;-89
2021/01/24 04:33:06;;;;;;;6.43;4.22;;;4.20;82.30;;;;;;5028625;28;20080;-88
2021/01/24 04:35:33;;;;;;;6.80;4.70;;;4.10;82.30;;;;;;5001425;28;20022;-88
2021/01/24 04:37:59;;;;;;;6.07;4.03;;;4.10;82.40;;;;;;5010895;28;20064;-89
2021/01/24 04:40:27;;;;;;;7.90;4.57;;;4.10;82.50;;;;;;5010782;28;20022;-89
2021/01/24 04:43:05;;;;;;;6.55;4.43;;;3.90;82.50;;;;;;5010137;28;20046;-90
2021/01/24 04:46:05;;;;;;;;;;;;;;;;;;;;;
2021/01/24 04:48:32;;;;;;;7.97;4.32;;;4.10;82.70;;;;;;5016521;28;20029;-89
2021/01/24 04:50:57;;;;;;;7.78;4.57;;;4.00;82.60;;;;;;5026306;28;20487;-89
2021/01/24 04:53:23;;;;;;;8.13;4.15;;;4.10;82.70;;;;;;5030949;28;20056;-86
2021/01/24 04:55:50;;;;;;;6.60;4.22;;;4.00;82.60;;;;;;5019471;28;20030;-88
2021/01/24 04:58:16;;;;;;;6.25;3.85;;;4.10;82.60;;;;;;5010668;28;20026;-89
2021/01/24 05:00:42;;;;;;;7.88;4.53;;;4.00;82.60;;;;;;5011266;28;20427;-89
2021/01/24 05:03:08;;;;;;;6.90;4.63;;;4.00;82.60;;;;;;5012958;28;20026;-88
2021/01/24 05:05:34;;;;;;;7.07;4.30;;;4.00;82.60;;;;;;5011835;28;20105;-87
2021/01/24 05:08:00;;;;;;;8.07;5.00;;;4.00;82.70;;;;;;5010697;28;20029;-90
2021/01/24 05:10:28;;;;;;;7.63;4.53;;;4.00;82.70;;;;;;5011182;28;20502;-90
2021/01/24 05:12:55;;;;;;;7.13;4.18;;;4.00;82.70;;;;;;4991542;28;20122;-89
2021/01/24 05:15:22;;;;;;;6.85;4.10;;;4.00;82.70;;;;;;5004309;28;20018;-89
2021/01/24 05:17:53;;;;;;;5.85;3.80;;;4.10;82.80;;;;;;5008287;28;20025;-89
2021/01/24 05:20:26;;;;;;;6.63;4.30;;;4.10;82.70;;;;;;5008664;28;20387;-89
2021/01/24 05:22:54;;;;;;;7.30;4.20;;;4.00;82.60;;;;;;5000123;28;20210;-87
2021/01/24 05:25:21;;;;;;;6.20;3.75;;;4.00;82.70;;;;;;5000849;28;20023;-88
2021/01/24 05:27:48;;;;;;;6.60;3.97;;;4.10;82.70;;;;;;4998955;28;20523;-87
2021/01/24 05:30:29;;;;;;;6.28;3.88;;;4.10;82.70;;;;;;5007900;28;20026;-87
2021/01/24 05:32:57;;;;;;;7.47;4.65;;;4.10;82.70;;;;;;5000484;28;20385;-87
2021/01/24 05:35:23;;;;;;;8.52;3.78;;;4.10;82.60;;;;;;5006294;28;20084;-86
2021/01/24 05:37:48;;;;;;;6.13;3.97;;;4.10;82.70;;;;;;5011609;28;20030;-87
2021/01/24 05:40:14;;;;;;;6.25;4.10;;;4.00;82.70;;;;;;5009744;28;20033;-89
2021/01/24 05:42:41;;;;;;;6.53;3.78;;;4.00;82.70;;;;;;5003714;28;20038;-89
2021/01/24 05:45:10;;;;;;;6.85;3.60;;;4.00;82.80;;;;;;5009329;28;20025;-90
2021/01/24 05:47:37;;;;;;;5.90;3.95;;;4.00;82.90;;;;;;5003001;28;20049;-88
2021/01/24 05:50:07;;;;;;;5.68;3.90;;;4.00;82.90;;;;;;5008967;28;20034;-88
2021/01/24 05:52:33;;;;;;;5.80;3.63;;;4.00;82.90;;;;;;5021704;28;20133;-88
2021/01/24 05:54:59;;;;;;;5.57;3.72;;;4.00;82.80;;;;;;5027877;28;20045;-88
2021/01/24 05:57:25;;;;;;;7.82;4.38;;;4.00;82.90;;;;;;5028402;28;20060;-89
2021/01/24 05:59:53;;;;;;;5.00;3.10;;;4.00;83.50;;;;;;5011580;28;20556;-89
2021/01/24 06:02:20;;;;;;;7.22;3.95;;;4.00;82.90;;;;;;5008516;28;20026;-89
2021/01/24 06:04:46;;;;;;;5.82;3.85;;;4.00;83.00;;;;;;5008803;28;20026;-90
2021/01/24 06:07:16;;;;;;;5.32;3.30;;;4.10;83.10;;;;;;4996740;28;20038;-90
2021/01/24 06:10:45;;;;;;;6.65;3.97;;;4.00;83.00;;;;;;5004218;28;20022;-90
2021/01/24 06:14:00;;;;;;;5.43;3.35;;;3.90;83.10;;;;;;4953234;28;20560;-91
2021/01/24 06:16:39;;;;;;;4.15;2.60;;;3.90;83.10;;;;;;5013074;28;20026;-90
2021/01/24 06:19:09;;;;;;;5.20;3.38;;;3.90;83.10;;;;;;5023600;28;20026;-88
2021/01/24 06:21:42;;;;;;;5.70;3.40;;;3.80;83.20;;;;;;5029503;28;20028;-89
2021/01/24 06:24:21;;;;;;;5.40;3.40;;;3.80;83.80;;;;;;5048727;28;20056;-90
2021/01/24 06:26:51;;;;;;;4.18;2.80;;;3.80;83.30;;;;;;5017433;28;20655;-89
2021/01/24 06:29:20;;;;;;;4.32;2.70;;;3.80;83.30;;;;;;5035150;28;20006;-88
2021/01/24 06:31:53;;;;;;;3.55;2.50;;;3.80;83.40;;;;;;5013786;28;20026;-89
2021/01/24 06:34:37;;;;;;;3.83;2.70;;;3.80;83.40;;;;;;5019162;28;20030;-89
2021/01/24 06:37:19;;;;;;;3.97;2.45;;;3.80;83.50;;;;;;5015907;28;20515;-88
2021/01/24 06:39:53;;;;;;;4.07;2.53;;;3.70;83.40;;;;;;5024779;28;20038;-89
2021/01/24 06:42:46;;;;;;;3.50;2.05;;;3.70;83.40;;;;;;5013236;28;20029;-89
2021/01/24 06:45:27;;;;;;;3.90;2.20;;;3.80;83.50;;;;;;5013362;28;20035;-90
2021/01/24 06:47:54;;;;;;;3.42;2.38;;;3.80;83.50;;;;;;5011139;28;20045;-87
2021/01/24 06:50:38;;;;;;;7.18;3.28;;;3.80;83.40;;;;;;5012207;28;20022;-89
2021/01/24 06:53:12;;;;;;;3.35;2.20;;;3.80;83.30;;;;;;5013124;28;20030;-89
2021/01/24 06:55:51;;;;;;;5.25;2.70;;;3.80;83.30;;;;;;5011601;28;20068;-90
2021/01/24 06:58:24;;;;;;;4.13;2.70;;;3.80;83.30;;;;;;5004451;28;20146;-89
2021/01/24 07:01:24;;;;;;;4.35;2.83;;;3.80;83.40;;;;;;5003069;28;20093;-90
2021/01/24 07:04:20;;;;;;;3.83;2.25;;;3.80;83.50;;;;;;5006967;28;20022;-90
2021/01/24 07:06:48;;;;;;;3.15;2.22;;;3.80;83.50;;;;;;5010495;28;20458;-90
2021/01/24 07:09:28;;;;;;;4.45;2.45;;;3.90;83.50;;;;;;5013939;28;20014;-89
2021/01/24 07:12:01;;;;;;;4.82;2.65;;;3.80;83.50;;;;;;5009608;28;20741;-88
2021/01/24 07:14:36;;;;;;;3.35;2.22;;;3.90;83.50;;;;;;5006757;28;20038;-89
2021/01/24 07:17:11;;;;;;;4.38;2.55;;;3.90;83.50;;;;;;5008383;28;20494;-87
2021/01/24 07:19:50;;;;;;;3.15;2.20;;;3.90;83.50;;;;;;5013736;28;20018;-90
2021/01/24 07:22:20;;;;;;;4.43;2.40;;;3.80;83.50;;;;;;5005888;28;20056;-88
2021/01/24 07:24:48;;;;;;;5.78;2.20;;;3.80;83.50;;;;;;5013377;28;20028;-85
2021/01/24 07:27:18;;;;;;;3.42;2.28;;;3.90;83.60;;;;;;5005073;28;20026;-87
2021/01/24 07:29:52;;;;;;;2.45;1.80;;;3.90;83.50;;;;;;5011225;28;20082;-87
2021/01/24 07:32:20;;;;;;;3.75;1.92;;;3.90;83.50;;;;;;5010529;28;20036;-88
2021/01/24 07:34:51;;;;;;;3.42;2.03;;;3.90;83.50;;;;;;5003696;28;20118;-88
2021/01/24 07:37:17;;;;;;;2.90;1.95;;;3.90;83.60;;;;;;5012684;28;20037;-88
2021/01/24 07:39:44;;;;;;;3.20;2.25;;;3.90;84.10;;;;;;5019329;28;20022;-88
2021/01/24 07:42:10;;;;;;;5.13;2.40;;;3.90;83.50;;;;;;5018175;28;20030;-88
2021/01/24 07:44:46;;;;;;;4.00;2.20;;;3.90;83.50;;;;;;5012169;28;20108;-89
2021/01/24 07:47:15;;;;;;;3.42;2.30;;;3.80;83.50;;;;;;5026698;28;20046;-91
2021/01/24 07:49:40;;;;;;;2.67;1.95;;;3.90;83.50;;;;;;5026019;28;20107;-91
2021/01/24 07:52:09;;;;;;;3.65;2.28;;;3.70;83.40;;;;;;5015560;28;20487;-90
2021/01/24 07:54:36;;;;;;;3.15;1.83;;;3.90;83.50;;;;;;5015973;28;20029;-91
2021/01/24 07:57:11;;;;;;;2.30;1.70;;;3.80;83.40;;;;;;5017920;28;20029;-92
2021/01/24 07:59:37;;;;;;;2.10;1.55;;;3.80;83.50;;;;;;5021570;28;20033;-92
2021/01/24 08:02:03;;;;;;;1.85;1.45;;;3.90;83.50;;;;;;5036113;28;20013;-91
2021/01/24 08:04:36;;;;;;;2.22;1.60;;;3.80;83.40;;;;;;5017491;28;20017;-91
2021/01/24 08:07:05;;;;;;;2.65;1.88;;;3.90;83.50;;;;;;5020530;28;20040;-93
2021/01/24 08:09:36;;;;;;;2.75;1.90;;;3.80;83.50;;;;;;5020825;28;20022;-92
2021/01/24 08:12:12;;;;;;;2.50;1.90;;;4.00;83.60;;;;;;5036013;28;20053;-90
2021/01/24 08:14:41;;;;;;;3.85;2.03;;;3.90;83.50;;;;;;5034660;28;20017;-92
2021/01/24 08:17:13;;;;;;;3.63;1.98;;;3.90;83.50;;;;;;5032598;28;20010;-92
2021/01/24 08:19:41;;;;;;;2.65;1.77;;;3.90;83.40;;;;;;5018484;28;20021;-91
2021/01/24 08:22:07;;;;;;;3.40;2.45;;;3.90;83.40;;;;;;5022032;28;20022;-91
2021/01/24 08:24:33;;;;;;;2.65;1.95;;;3.90;83.30;;;;;;5020553;28;20444;-91
2021/01/24 08:26:59;;;;;;;4.50;2.35;;;3.90;83.30;;;;;;5023262;28;20073;-90
2021/01/24 08:29:34;;;;;;;3.00;2.30;;;3.90;83.20;;;;;;5015234;28;20014;-91
2021/01/24 08:32:26;;;;;;;5.32;2.70;;;3.90;83.20;;;;;;5018599;28;20046;-92
2021/01/24 08:35:54;;;;;;;3.20;2.25;;;3.90;83.20;;;;;;5024729;28;20029;-90
2021/01/24 08:38:20;;;;;;;2.85;1.95;;;3.80;83.20;;;;;;5043280;28;20097;-91
2021/01/24 08:40:48;;;;;;;3.72;2.40;;;3.80;83.20;;;;;;5038699;28;20014;-90
2021/01/24 08:43:20;;;;;;;2.70;2.00;;;3.80;83.30;;;;;;5026252;28;20030;-91
2021/01/24 08:45:47;;;;;;;3.67;2.10;;;3.80;83.30;;;;;;5020076;28;20037;-91
2021/01/24 08:48:24;;;;;;;4.05;2.10;;;4.00;83.40;;;;;;5022390;28;20087;-91
2021/01/24 08:51:00;;;;;;;3.63;1.83;;;3.80;83.20;;;;;;5030905;28;20034;-91
2021/01/24 08:53:26;;;;;;;4.18;2.40;;;3.80;83.20;;;;;;5036577;28;20035;-91
2021/01/24 08:56:19;;;;;;;3.08;2.00;;;3.90;83.30;;;;;;5047328;28;20016;-93
2021/01/24 08:58:45;;;;;;;2.53;1.88;;;3.90;83.30;;;;;;5038258;28;20026;-90
2021/01/24 09:01:11;;;;;;;2.30;1.70;;;3.90;83.20;;;;;;5036401;28;20230;-90
2021/01/24 09:03:58;;;;;;;3.38;2.00;;;4.10;83.30;;;;;;5042611;28;20041;-90
2021/01/24 09:06:23;;;;;;;3.60;1.98;;;3.90;83.20;;;;;;5038321;28;20017;-92
2021/01/24 09:08:52;;;;;;;2.13;1.40;;;4.00;83.10;;;;;;5030586;28;20034;-91
2021/01/24 09:11:21;;;;;;;3.80;2.67;;;4.00;83.10;;;;;;5037182;28;20077;-90
2021/01/24 09:13:51;;;;;;;2.22;1.65;;;4.00;83.10;;;;;;5031980;28;20058;-91
2021/01/24 09:16:20;;;;;;;1.45;1.10;;;3.90;83.10;;;;;;5021926;28;20030;-90
2021/01/24 09:18:46;;;;;;;2.90;1.60;;;3.90;83.10;;;;;;5019413;28;20108;-89
2021/01/24 09:21:11;;;;;;;3.00;1.67;;;3.90;83.10;;;;;;5026612;28;20060;-89
2021/01/24 09:23:37;;;;;;;3.10;2.10;;;3.90;83.20;;;;;;5022601;28;20112;-90
2021/01/24 09:26:04;;;;;;;2.17;1.73;;;4.00;83.20;;;;;;5019612;28;20080;-89
2021/01/24 09:28:35;;;;;;;2.53;1.98;;;3.90;83.20;;;;;;5019649;28;20022;-89
2021/01/24 09:31:01;;;;;;;2.65;1.65;;;3.90;83.20;;;;;;5022428;28;20084;-88
2021/01/24 09:33:26;;;;;;;2.88;2.00;;;3.90;83.20;;;;;;5025732;28;20029;-89
2021/01/24 09:36:13;;;;;;;2.45;1.60;;;3.90;83.20;;;;;;5039894;28;20037;-89
2021/01/24 09:39:09;;;;;;;;;;;;;;;;;;;;;
2021/01/24 09:41:35;;;;;;;2.35;1.60;;;4.00;83.10;;;;;;5004798;28;20042;-87
2021/01/24 09:44:02;;;;;;;1.85;1.15;;;4.00;83.10;;;;;;5016186;28;20037;-86
2021/01/24 09:46:28;;;;;;;2.17;1.50;;;4.00;83.10;;;;;;5015970;28;20039;-87
2021/01/24 09:48:54;;;;;;;4.15;1.60;;;4.10;83.20;;;;;;5017020;28;20030;-90
2021/01/24 09:51:20;;;;;;;3.05;1.67;;;4.10;83.10;;;;;;5014093;28;20053;-88
2021/01/24 09:53:50;;;;;;;2.25;1.20;;;4.10;83.00;;;;;;5014712;28;20065;-88
2021/01/24 09:56:16;;;;;;;1.92;1.30;;;4.20;83.10;;;;;;5012177;28;20500;-86
2021/01/24 09:58:41;;;;;;;1.60;1.30;;;4.20;82.90;;;;;;5014540;28;20037;-89
2021/01/24 10:01:07;;;;;;;1.65;1.10;;;4.30;82.80;;;;;;5013140;28;20034;-86
2021/01/24 10:03:33;;;;;;;1.80;1.25;;;4.30;82.80;;;;;;5015978;28;20069;-88
2021/01/24 10:05:59;;;;;;;1.40;1.17;;;4.40;82.80;;;;;;5013811;28;20048;-86
2021/01/24 10:08:24;;;;;;;2.25;1.30;;;4.40;82.70;;;;;;5012706;28;20040;-88
2021/01/24 10:10:50;;;;;;;2.40;1.25;;;4.50;82.70;;;;;;5006991;28;20841;-85
2021/01/24 10:13:15;;;;;;;1.73;1.27;;;4.50;82.60;;;;;;5005936;28;20124;-87
2021/01/24 10:15:41;;;;;;;2.03;1.08;;;4.50;82.60;;;;;;5009755;28;20025;-84
2021/01/24 10:18:07;;;;;;;2.58;1.30;;;4.60;82.60;;;;;;5008173;28;20029;-86
2021/01/24 10:20:34;;;;;;;2.78;1.20;;;4.60;82.60;;;;;;5007267;28;20148;-84
2021/01/24 10:23:00;;;;;;;2.05;1.00;;;4.60;82.50;;;;;;5009399;28;20064;-85
2021/01/24 10:25:26;;;;;;;0.95;0.85;;;4.70;82.50;;;;;;5008747;28;20026;-87
2021/01/24 10:27:51;;;;;;;1.52;1.05;;;4.70;82.40;;;;;;5008629;28;20041;-88
2021/01/24 10:30:18;;;;;;;1.10;1.00;;;4.80;82.40;;;;;;5009531;28;20080;-85
2021/01/24 10:32:44;;;;;;;1.67;1.40;;;4.80;82.30;;;;;;5009080;28;20018;-86
2021/01/24 10:35:09;;;;;;;1.67;0.90;;;4.90;82.20;;;;;;5007457;28;20479;-87
2021/01/24 10:37:35;;;;;;;4.55;1.30;;;4.90;82.20;;;;;;5010542;28;20107;-86
2021/01/24 10:40:04;;;;;;;1.63;0.98;;;5.00;82.10;;;;;;5003293;28;20118;-87
2021/01/24 10:42:30;;;;;;;1.98;0.90;;;5.00;82.00;;;;;;4998986;28;20364;-88
2021/01/24 10:44:59;;;;;;;2.40;1.00;;;5.10;81.90;;;;;;5009763;28;20022;-93
2021/01/24 10:47:28;;;;;;;2.55;1.00;;;5.10;81.80;;;;;;5144921;23;20056;-92
2021/01/24 10:50:30;;;;;;;2.60;1.10;;;5.10;81.70;;;;;;5012452;28;20029;-92
2021/01/24 10:52:56;;;;;;;1.97;1.00;;;5.30;81.60;;;;;;5004876;28;20089;-87
2021/01/24 10:55:24;;;;;;;2.97;0.80;;;5.30;81.40;;;;;;5006757;28;20029;-88
2021/01/24 10:57:50;;;;;;;2.70;1.10;;;5.40;81.40;;;;;;5010624;28;20022;-86
2021/01/24 11:00:17;;;;;;;1.35;0.80;;;5.50;81.30;;;;;;4999027;28;20111;-87
2021/01/24 11:02:42;;;;;;;2.63;1.00;;;5.50;81.10;;;;;;5023337;28;20471;-86
2021/01/24 11:05:09;;;;;;;1.60;1.00;;;5.50;81.00;;;;;;5013551;28;20021;-86
2021/01/24 11:07:36;;;;;;;1.95;1.05;;;5.50;80.80;;;;;;5022285;28;20088;-86
2021/01/24 11:10:07;;;;;;;2.75;1.20;;;5.60;80.70;;;;;;5023335;28;20025;-86
2021/01/24 11:29:09;;;;;;;1.50;1.25;;;6.00;80.10;;;;;;5724207;22;20195;-88
2021/01/24 11:31:36;;;;;;;1.77;1.00;;;6.00;79.80;;;;;;5005403;28;20577;-86
2021/01/24 11:34:02;;;;;;;3.47;1.40;;;6.00;79.60;;;;;;5013680;28;20022;-85
2021/01/24 11:36:27;;;;;;;2.08;1.17;;;6.00;79.40;;;;;;5003711;28;20034;-84
2021/01/24 11:38:53;;;;;;;2.20;1.02;;;5.90;79.20;;;;;;5011083;28;20503;-86
2021/01/24 11:41:36;;;;;;;1.20;0.80;;;6.00;79.20;;;;;;5017092;28;20277;-86
2021/01/24 11:47:40;;;;;;;3.47;1.20;;;6.00;79.40;;;;;;5017549;28;20044;-89
2021/01/24 11:50:08;;;;;;;1.77;0.95;;;6.00;79.30;;;;;;5010603;28;20065;-87
2021/01/24 11:52:34;;;;;;;1.48;1.02;;;6.00;79.00;;;;;;5025666;28;20036;-86
2021/01/24 11:55:18;;;;;;;2.20;0.68;;;6.00;78.90;;;;;;5017568;28;20088;-95
2021/01/24 12:01:47;;;;;;;3.35;0.90;;;6.00;78.90;;;;;;4934985;29;20130;-96
2021/01/24 12:04:13;;;;;;;1.85;1.02;;;6.10;78.80;;;;;;4936141;29;20028;-90
2021/01/24 12:06:41;;;;;;;1.95;1.08;;;6.10;78.60;;;;;;4958561;28;20385;-95
2021/01/24 12:09:06;;;;;;;1.63;0.90;;;6.20;78.50;;;;;;5018664;28;20075;-89
2021/01/24 12:11:58;;;;;;;1.58;1.00;;;6.20;78.30;;;;;;5013089;28;20041;-92
2021/01/24 12:14:24;;;;;;;1.85;0.80;;;6.40;78.20;;;;;;5014435;28;20037;-89
2021/01/24 12:16:50;;;;;;;3.25;1.60;;;6.50;78.30;;;;;;5020285;28;20024;-91
2021/01/24 12:19:15;;;;;;;2.95;1.20;;;7.00;78.20;;;;;;5013849;28;20040;-91
2021/01/24 12:21:41;;;;;;;2.67;1.38;;;7.10;77.20;;;;;;5014649;28;20724;-91
2021/01/24 12:24:11;;;;;;;1.55;1.05;;;7.00;76.50;;;;;;5016237;28;20029;-92
2021/01/24 12:29:44;;;;;;;2.42;1.08;;;6.90;76.20;;;;;;5285536;22;20248;-94
2021/01/24 12:32:13;;;;;;;1.88;0.90;;;6.90;76.10;;;;;;5040245;28;20006;-92
2021/01/24 12:34:43;;;;;;;1.98;1.00;;;6.70;76.10;;;;;;5038188;28;20033;-94
2021/01/24 12:37:21;;;;;;;0.98;0.90;;;6.80;76.20;;;;;;5017175;28;20022;-95
2021/01/24 12:40:14;;;;;;;1.13;1.02;;;6.70;76.20;;;;;;5005487;28;20034;-94
2021/01/24 12:42:51;;;;;;;2.85;1.00;;;6.90;76.10;;;;;;5011206;28;20036;-90
2021/01/24 12:45:19;;;;;;;1.85;1.30;;;7.20;76.10;;;;;;4986764;28;20026;-91
2021/01/24 12:54:46;;;;;;;4.53;1.70;;;8.20;72.00;;;;;;4950467;28;20509;-90
2021/01/24 14:24:13;;;;;;;3.22;2.08;;;6.60;76.00;;;;;;5938363;22;20053;-87
2021/01/24 14:26:38;;;;;;;3.25;1.83;;;6.60;75.90;;;;;;4995388;28;20046;-88
2021/01/24 14:29:04;;;;;;;2.53;1.83;;;6.60;75.80;;;;;;4994302;28;20062;-90
2021/01/24 14:31:30;;;;;;;4.65;2.30;;;6.60;75.80;;;;;;5005540;28;20038;-90
2021/01/24 14:33:56;;;;;;;3.40;1.77;;;6.70;75.60;;;;;;5005135;28;20026;-88
2021/01/24 14:36:24;;;;;;;2.15;1.60;;;6.70;75.40;;;;;;4995187;28;20042;-89
2021/01/24 14:38:49;;;;;;;3.53;1.70;;;6.60;75.30;;;;;;4993926;28;20029;-89
2021/01/24 14:41:16;;;;;;;3.15;1.67;;;6.60;75.30;;;;;;4994779;28;20018;-88
2021/01/24 14:43:42;;;;;;;4.22;2.05;;;6.60;75.30;;;;;;4977339;28;20132;-88
2021/01/24 14:46:08;;;;;;;3.80;2.00;;;6.60;75.10;;;;;;4985220;28;20548;-86
2021/01/24 14:48:33;;;;;;;3.83;2.50;;;6.50;75.00;;;;;;4994607;28;20627;-87
2021/01/24 14:50:59;;;;;;;3.67;2.40;;;6.40;74.40;;;;;;4996382;28;20077;-87
2021/01/24 14:53:24;;;;;;;3.72;1.60;;;6.50;74.60;;;;;;5005948;28;20038;-90
2021/01/24 14:55:51;;;;;;;3.47;2.10;;;6.30;74.70;;;;;;4997922;28;20049;-87
2021/01/24 15:01:08;;;;;;;5.40;2.40;;;6.30;74.90;;;;;;4990285;28;20113;-87
2021/01/24 15:03:33;;;;;;;6.13;2.40;;;6.20;74.70;;;;;;5000289;28;20491;-86
2021/01/24 15:05:59;;;;;;;6.25;3.00;;;6.10;74.60;;;;;;5005624;28;20037;-87
2021/01/24 15:08:27;;;;;;;3.17;2.05;;;6.00;74.00;;;;;;5006826;28;20045;-90
2021/01/24 15:10:52;;;;;;;4.40;2.35;;;5.90;74.30;;;;;;5007868;28;20037;-88
2021/01/24 15:13:19;;;;;;;4.68;2.40;;;5.90;74.50;;;;;;5018296;28;20006;-87
2021/01/24 15:15:45;;;;;;;3.95;2.13;;;5.90;74.70;;;;;;5018415;28;20038;-86